Time;durP1;ratioP1;P1;durP2;ratioP2;P2;SDS_P1;SDS_P2;PMS_P1;PMS_P2;Temp;Humidity;BMP_temperature;BMP_pressure;BME280_temperature;BME280_humidity;BME280_pressure;Samples;Min_cycle;Max_cycle;Signal;HPM_P1;HPM_P2
2022/12/07 00:00:10;;;;;;;6.93;6.33;;;;;;;-6.42;61.99;102198.30;487108;109;922451;-76
2022/12/07 00:01:19;;;;;;;6.68;6.10;;;;;;;-6.42;61.86;102203.61;487251;109;922548;-76
2022/12/07 00:02:22;;;;;;;6.92;6.12;;;;;;;-6.42;61.87;102192.99;486924;109;922879;-77
2022/12/07 00:03:26;;;;;;;8.25;6.31;;;;;;;-6.41;61.84;102199.16;487219;106;922565;-77
2022/12/07 00:04:29;;;;;;;6.81;6.23;;;;;;;-6.43;61.86;102196.56;487175;109;922448;-76
2022/12/07 00:05:32;;;;;;;6.74;6.23;;;;;;;-6.40;61.86;102195.59;487329;109;922498;-78
2022/12/07 00:06:39;;;;;;;8.10;7.31;;;;;;;-6.42;61.83;102192.99;486098;107;922486;-78
2022/12/07 00:07:42;;;;;;;7.10;6.57;;;;;;;-6.42;61.97;102198.30;485517;109;922610;-77
2022/12/07 00:08:46;;;;;;;7.21;6.58;;;;;;;-6.43;61.83;102193.05;486074;109;922519;-76
2022/12/07 00:09:49;;;;;;;6.46;5.96;;;;;;;-6.45;61.85;102195.77;486010;109;922418;-77
2022/12/07 00:10:52;;;;;;;6.89;5.84;;;;;;;-6.45;61.88;102192.27;486151;109;922520;-77
2022/12/07 00:11:55;;;;;;;7.81;6.59;;;;;;;-6.45;61.96;102190.45;486084;109;922755;-76
2022/12/07 00:12:59;;;;;;;6.73;6.12;;;;;;;-6.46;62.02;102196.72;486144;109;922526;-77
2022/12/07 00:14:05;;;;;;;7.51;6.77;;;;;;;-6.45;61.90;102186.97;486121;109;922469;-77
2022/12/07 00:15:09;;;;;;;8.29;6.43;;;;;;;-6.46;62.01;102188.75;485902;109;922423;-76
2022/12/07 00:16:17;;;;;;;7.19;6.65;;;;;;;-6.46;61.94;102193.20;486011;109;922435;-76
2022/12/07 00:17:21;;;;;;;7.10;6.50;;;;;;;-6.47;61.91;102189.68;486143;109;922496;-76
2022/12/07 00:18:24;;;;;;;6.30;5.81;;;;;;;-6.47;61.91;102183.50;486335;109;922481;-77
2022/12/07 00:19:27;;;;;;;8.44;7.16;;;;;;;-6.48;61.98;102177.34;486350;109;922712;-78
2022/12/07 00:20:31;;;;;;;7.11;6.51;;;;;;;-6.49;61.86;102186.22;486293;109;922462;-78
2022/12/07 00:21:35;;;;;;;7.02;6.42;;;;;;;-6.50;61.83;102178.31;486322;109;922502;-77
2022/12/07 00:22:38;;;;;;;6.97;6.38;;;;;;;-6.52;61.83;102178.41;486164;109;922586;-76
2022/12/07 00:23:44;;;;;;;7.76;7.05;;;;;;;-6.54;61.90;102180.25;486356;109;922539;-77
2022/12/07 00:24:47;;;;;;;6.94;6.32;;;;;;;-6.55;61.80;102181.17;486117;109;923291;-76
2022/12/07 00:25:50;;;;;;;7.18;6.58;;;;;;;-6.56;61.96;102175.95;486329;109;922440;-77
2022/12/07 00:26:53;;;;;;;6.81;6.22;;;;;;;-6.58;61.94;102173.37;486378;109;922675;-77
2022/12/07 00:27:56;;;;;;;7.24;6.74;;;;;;;-6.59;61.88;102176.94;486362;109;922621;-77
2022/12/07 00:29:02;;;;;;;7.48;6.77;;;;;;;-6.58;61.90;102180.45;486258;109;922852;-77
2022/12/07 00:30:07;;;;;;;7.18;6.36;;;;;;;-6.59;62.02;102174.28;486152;109;922739;-77
2022/12/07 00:31:12;;;;;;;7.15;6.42;;;;;;;-6.59;61.90;102174.28;486280;109;922510;-76
2022/12/07 00:32:15;;;;;;;6.97;6.33;;;;;;;-6.59;62.00;102176.08;486170;109;922421;-76
2022/12/07 00:33:18;;;;;;;7.96;7.36;;;;;;;-6.60;62.00;102167.25;486370;109;922479;-78
2022/12/07 00:34:22;;;;;;;7.00;6.50;;;;;;;-6.59;61.93;102173.42;486364;109;922508;-76
2022/12/07 00:35:25;;;;;;;7.16;6.62;;;;;;;-6.59;61.94;102163.67;486351;109;922407;-77
2022/12/07 00:36:28;;;;;;;6.98;6.42;;;;;;;-6.61;61.93;102165.52;486365;109;922737;-77
2022/12/07 00:37:31;;;;;;;7.36;6.74;;;;;;;-6.60;61.93;102171.70;486365;109;922834;-76
2022/12/07 00:38:36;;;;;;;7.29;6.62;;;;;;;-6.60;61.98;102166.39;486337;109;922489;-76
2022/12/07 00:39:39;;;;;;;6.41;5.92;;;;;;;-6.61;62.04;102157.56;486129;109;922537;-78
2022/12/07 00:40:43;;;;;;;6.73;6.17;;;;;;;-6.61;62.06;102162.87;486345;109;922781;-78
2022/12/07 00:41:46;;;;;;;6.13;5.66;;;;;;;-6.61;62.08;102164.66;486356;109;922490;-76
2022/12/07 00:42:49;;;;;;;6.97;6.37;;;;;;;-6.61;62.00;102165.52;486345;109;922436;-78
2022/12/07 00:43:52;;;;;;;6.82;6.22;;;;;;;-6.61;61.96;102159.35;486207;109;922790;-75
2022/12/07 00:44:56;;;;;;;7.12;6.54;;;;;;;-6.63;61.96;102156.79;486232;109;923080;-76
2022/12/07 00:45:59;;;;;;;6.97;6.47;;;;;;;-6.63;61.93;102166.53;486247;109;930481;-76
2022/12/07 00:47:02;;;;;;;6.61;6.11;;;;;;;-6.65;61.89;102163.94;486245;109;922750;-76
2022/12/07 00:48:05;;;;;;;6.70;6.11;;;;;;;-6.66;62.00;102161.34;486340;109;923933;-77
2022/12/07 00:49:08;;;;;;;6.91;6.16;;;;;;;-6.66;61.92;102164.00;486340;109;922770;-78
2022/12/07 00:50:12;;;;;;;6.61;6.10;;;;;;;-6.67;62.02;102163.13;486259;109;922963;-76
2022/12/07 00:51:17;;;;;;;7.47;6.87;;;;;;;-6.69;61.99;102162.36;486331;109;922459;-77
2022/12/07 00:52:20;;;;;;;6.82;6.31;;;;;;;-6.69;61.95;102165.01;486153;109;922504;-77
2022/12/07 00:53:24;;;;;;;6.62;6.10;;;;;;;-6.69;61.93;102164.14;486378;109;923022;-75
2022/12/07 00:54:27;;;;;;;7.13;6.56;;;;;;;-6.69;62.02;102165.01;486235;109;922539;-77
2022/12/07 00:55:34;;;;;;;6.35;5.89;;;;;;;-6.69;62.02;102162.36;486235;109;922525;-76
2022/12/07 00:56:37;;;;;;;6.40;5.81;;;;;;;-6.69;62.07;102159.70;486158;109;922562;-77
2022/12/07 00:57:40;;;;;;;6.54;6.03;;;;;;;-6.70;61.97;102165.94;486357;109;922552;-78
2022/12/07 00:58:44;;;;;;;7.69;6.78;;;;;;;-6.69;62.02;102157.05;486350;109;922828;-77
2022/12/07 00:59:48;;;;;;;6.55;5.81;;;;;;;-6.70;61.94;102163.28;486229;109;922539;-78
2022/12/07 01:00:51;;;;;;;6.92;6.33;;;;;;;-6.71;61.97;102156.25;486163;109;930487;-76
2022/12/07 01:01:54;;;;;;;6.94;6.28;;;;;;;-6.71;62.06;102153.59;486354;109;922456;-77
2022/12/07 01:02:58;;;;;;;6.99;6.44;;;;;;;-6.70;61.98;102157.11;486265;109;922443;-78
2022/12/07 01:04:02;;;;;;;6.36;5.77;;;;;;;-6.70;62.05;102151.80;486349;109;922870;-77
2022/12/07 01:05:06;;;;;;;6.56;5.96;;;;;;;-6.70;62.08;102155.32;486239;109;922533;-77
2022/12/07 01:06:09;;;;;;;7.09;6.40;;;;;;;-6.70;62.04;102152.67;486216;109;922952;-78
2022/12/07 01:07:12;;;;;;;6.99;6.41;;;;;;;-6.67;62.07;102162.30;486381;109;922546;-76
2022/12/07 01:08:15;;;;;;;7.70;7.10;;;;;;;-6.68;62.07;102153.48;486332;109;922516;-77
2022/12/07 01:09:19;;;;;;;7.73;7.05;;;;;;;-6.67;62.00;102151.69;486195;109;922627;-76
2022/12/07 01:10:22;;;;;;;7.32;6.76;;;;;;;-6.67;62.07;102160.48;486375;109;922517;-77
2022/12/07 01:11:27;;;;;;;6.21;5.72;;;;;;;-6.67;62.01;102149.88;486345;109;923036;-76
2022/12/07 01:12:30;;;;;;;6.82;6.23;;;;;;;-6.66;62.04;102156.04;486117;109;922755;-76
2022/12/07 01:13:35;;;;;;;6.64;6.14;;;;;;;-6.66;61.94;102151.60;486341;109;922737;-77
2022/12/07 01:14:38;;;;;;;6.95;5.78;;;;;;;-6.65;62.04;102148.02;486126;109;922575;-78
2022/12/07 01:15:43;;;;;;;6.84;6.34;;;;;;;-6.65;61.92;102148.02;486274;109;930471;-77
2022/12/07 01:16:46;;;;;;;6.88;6.31;;;;;;;-6.65;61.89;102139.20;490850;107;922473;-77
2022/12/07 01:17:49;;;;;;;6.57;6.06;;;;;;;-6.66;61.88;102142.78;495473;107;922413;-76
2022/12/07 01:18:54;;;;;;;6.45;5.98;;;;;;;-6.67;61.86;102144.56;495543;107;922801;-76
2022/12/07 01:19:57;;;;;;;6.99;6.40;;;;;;;-6.67;61.88;102143.73;495390;107;922677;-76
2022/12/07 01:21:11;;;;;;;7.65;6.98;;;;;;;-6.68;61.89;102142.00;495500;107;922551;-75
2022/12/07 01:22:14;;;;;;;6.97;6.37;;;;;;;-6.69;61.86;102146.45;493559;107;922505;-76
2022/12/07 01:23:17;;;;;;;7.03;6.49;;;;;;;-6.71;61.80;102142.98;495636;107;922679;-75
2022/12/07 01:24:20;;;;;;;6.18;5.58;;;;;;;-6.71;61.80;102136.81;495552;107;922517;-78
2022/12/07 01:25:23;;;;;;;6.93;6.36;;;;;;;-6.72;61.94;102138.60;495561;107;922481;-79
2022/12/07 01:26:27;;;;;;;6.94;6.34;;;;;;;-6.72;61.94;102146.56;495581;107;922407;-77
2022/12/07 01:27:30;;;;;;;7.99;7.21;;;;;;;-6.71;61.81;102140.33;495478;107;922406;-78
2022/12/07 01:28:34;;;;;;;7.31;6.61;;;;;;;-6.70;61.91;102143.84;495573;107;922690;-76
2022/12/07 01:29:37;;;;;;;7.13;6.52;;;;;;;-6.71;61.91;102140.33;495447;107;922494;-76
2022/12/07 01:30:40;;;;;;;7.03;6.48;;;;;;;-6.71;61.83;102137.68;495592;107;923153;-74
2022/12/07 01:31:43;;;;;;;7.24;6.68;;;;;;;-6.70;61.87;102139.41;495565;107;922454;-76
2022/12/07 01:32:46;;;;;;;8.06;6.61;;;;;;;-6.70;61.80;102144.72;495579;107;922582;-76
2022/12/07 01:33:52;;;;;;;7.74;7.11;;;;;;;-6.69;61.80;102137.63;495593;107;922509;-76
2022/12/07 01:34:56;;;;;;;6.49;5.91;;;;;;;-6.69;61.73;102137.63;495309;107;922405;-78
2022/12/07 01:36:04;;;;;;;6.66;6.07;;;;;;;-6.70;61.87;102138.55;495589;107;923388;-77
2022/12/07 01:37:07;;;;;;;6.96;6.37;;;;;;;-6.69;61.82;102134.97;495382;107;922491;-76
2022/12/07 01:38:10;;;;;;;6.84;6.34;;;;;;;-6.70;61.83;102135.89;495601;107;922584;-78
2022/12/07 01:39:13;;;;;;;7.04;6.44;;;;;;;-6.71;61.74;102132.38;495525;107;922432;-77
2022/12/07 01:40:17;;;;;;;7.46;6.79;;;;;;;-6.72;61.82;102135.95;495579;107;922609;-77
2022/12/07 01:41:21;;;;;;;6.89;6.28;;;;;;;-6.73;61.73;102131.60;495448;107;922448;-76
2022/12/07 01:42:24;;;;;;;7.41;6.79;;;;;;;-6.73;61.83;102128.95;495489;107;922446;-76
2022/12/07 01:43:29;;;;;;;7.44;6.89;;;;;;;-6.72;61.83;102135.08;495621;107;922522;-77
2022/12/07 01:44:32;;;;;;;7.28;6.63;;;;;;;-6.72;61.83;102135.08;495276;107;922576;-76
2022/12/07 01:45:40;;;;;;;7.06;6.44;;;;;;;-6.71;61.85;102128.86;495530;107;922505;-76
2022/12/07 01:46:56;;;;;;;7.52;6.92;;;;;;;-6.72;61.77;102122.69;495413;107;922522;-77
2022/12/07 01:48:00;;;;;;;7.15;6.55;;;;;;;-6.71;61.70;102128.86;495363;107;922760;-76
2022/12/07 01:49:06;;;;;;;6.89;6.27;;;;;;;-6.71;61.71;102127.07;495545;107;922359;-74
2022/12/07 01:50:10;;;;;;;7.02;6.42;;;;;;;-6.72;61.71;102127.99;494753;107;922466;-78
2022/12/07 01:51:15;;;;;;;7.69;6.97;;;;;;;-6.72;61.70;102125.34;495383;107;923270;-77
2022/12/07 01:52:30;;;;;;;6.98;6.35;;;;;;;-6.71;61.70;102128.86;495279;107;922926;-76
2022/12/07 01:53:37;;;;;;;7.10;6.47;;;;;;;-6.71;61.71;102131.51;495279;107;922622;-77
2022/12/07 01:54:41;;;;;;;6.64;6.07;;;;;;;-6.70;61.71;102120.84;494625;105;922565;-75
2022/12/07 01:55:47;;;;;;;7.26;6.67;;;;;;;-6.70;61.82;102122.63;489911;108;922433;-77
2022/12/07 01:56:53;;;;;;;6.93;6.34;;;;;;;-6.69;61.79;102127.02;489778;108;930539;-79
2022/12/07 01:57:57;;;;;;;6.43;5.87;;;;;;;-6.70;61.68;102115.54;489847;108;922454;-77
2022/12/07 01:59:01;;;;;;;6.31;5.84;;;;;;;-6.70;61.65;102118.19;489980;108;922662;-77
2022/12/07 02:00:06;;;;;;;6.46;5.71;;;;;;;-6.70;61.68;102123.50;492830;105;922562;-76
2022/12/07 02:01:16;;;;;;;6.62;6.05;;;;;;;-6.70;61.70;102120.84;495137;107;930576;-77
2022/12/07 02:02:28;;;;;;;7.01;6.21;;;;;;;-6.69;61.66;102125.23;495372;107;922624;-76
2022/12/07 02:03:38;;;;;;;6.65;6.12;;;;;;;-6.69;61.65;102119.05;495283;107;922500;-75
2022/12/07 02:04:42;;;;;;;6.54;6.04;;;;;;;-6.69;61.63;102122.58;494543;107;922482;-77
2022/12/07 02:05:47;;;;;;;6.93;6.34;;;;;;;-6.68;61.62;102112.83;495356;107;922441;-75
2022/12/07 02:06:51;;;;;;;6.62;6.11;;;;;;;-6.69;61.59;102114.62;493532;107;930484;-77
2022/12/07 02:07:56;;;;;;;6.49;5.99;;;;;;;-6.69;61.60;102117.27;490043;108;922644;-78
2022/12/07 02:09:00;;;;;;;7.31;6.58;;;;;;;-6.68;61.67;102113.69;489988;108;922837;-77
2022/12/07 02:10:21;;;;;;;6.72;6.22;;;;;;;-6.68;61.58;102111.04;488058;107;922473;-77
2022/12/07 02:11:24;;;;;;;7.54;6.45;;;;;;;-6.66;61.64;102110.95;485843;106;922469;-77
2022/12/07 02:12:27;;;;;;;6.79;6.24;;;;;;;-6.67;61.60;102115.39;486565;109;922512;-77
2022/12/07 02:13:33;;;;;;;7.37;6.64;;;;;;;-6.67;61.52;102115.39;486448;109;922426;-76
2022/12/07 02:14:37;;;;;;;7.63;6.98;;;;;;;-6.66;61.58;102125.08;486438;108;922595;-77
2022/12/07 02:15:59;;;;;;;7.01;6.48;;;;;;;-6.68;61.46;102124.30;486479;109;922530;-77
2022/12/07 02:17:24;;;;;;;7.86;7.18;;;;;;;-6.68;61.47;102119.00;489132;108;930477;-76
2022/12/07 02:18:39;;;;;;;7.33;6.74;;;;;;;-6.67;61.44;102117.20;489972;108;922507;-76
2022/12/07 02:20:07;;;;;;;6.77;6.17;;;;;;;-6.69;61.41;102125.23;488511;107;922535;-74
2022/12/07 02:21:20;;;;;;;6.94;6.35;;;;;;;-6.70;61.45;102127.94;486324;109;922549;-77
2022/12/07 02:22:46;;;;;;;6.39;5.77;;;;;;;-6.71;61.45;102126.20;486330;109;922452;-77
2022/12/07 02:24:14;;;;;;;6.64;6.12;;;;;;;-6.74;61.55;102127.22;486312;109;922962;-76
2022/12/07 02:25:36;;;;;;;7.66;6.96;;;;;;;-6.73;61.61;102126.30;487411;107;922757;-77
2022/12/07 02:26:45;;;;;;;6.87;6.32;;;;;;;-6.73;61.52;102128.95;487544;109;922484;-77
2022/12/07 02:28:01;;;;;;;7.42;6.66;;;;;;;-6.74;61.56;102129.88;487101;109;922097;-77
2022/12/07 02:29:13;;;;;;;7.23;6.55;;;;;;;-6.74;61.64;102124.56;486865;109;922208;-77
2022/12/07 02:30:19;;;;;;;7.83;6.97;;;;;;;-6.73;61.66;102114.82;486977;107;922530;-76
2022/12/07 02:31:26;;;;;;;7.15;6.48;;;;;;;-6.73;61.54;102123.64;487583;109;922141;-78
2022/12/07 02:32:45;;;;;;;6.82;6.23;;;;;;;-6.72;61.54;102122.69;487339;109;922170;-76
2022/12/07 02:33:55;;;;;;;7.81;7.09;;;;;;;-6.69;61.63;102113.75;487063;109;922021;-77
2022/12/07 02:35:15;;;;;;;7.55;6.92;;;;;;;-6.56;61.60;102120.25;479049;110;947257;-76
2022/12/07 02:36:31;;;;;;;7.32;6.03;;;;;;;-6.69;61.56;102114.62;469945;113;922185;-76
2022/12/07 02:37:49;;;;;;;7.27;6.59;;;;;;;-6.68;61.55;102116.34;469930;113;922133;-76
2022/12/07 02:39:05;;;;;;;7.07;6.47;;;;;;;-6.68;61.53;102115.48;469606;113;922349;-77
2022/12/07 02:40:31;;;;;;;6.76;6.16;;;;;;;-6.68;61.38;102105.73;473551;109;922247;-76
2022/12/07 02:41:38;;;;;;;6.36;5.87;;;;;;;-6.71;61.44;102110.30;475128;112;922251;-77
2022/12/07 02:42:44;;;;;;;6.46;5.86;;;;;;;-6.72;61.37;102096.17;475173;112;922299;-76
2022/12/07 02:43:54;;;;;;;7.65;7.05;;;;;;;-6.72;61.39;102108.56;474694;112;922269;-76
2022/12/07 02:44:59;;;;;;;7.46;6.74;;;;;;;-6.73;61.42;102102.43;474726;112;922337;-76
2022/12/07 02:46:06;;;;;;;7.26;6.19;;;;;;;-6.73;61.35;102097.13;475432;112;922243;-76
2022/12/07 02:47:13;;;;;;;6.72;6.12;;;;;;;-6.72;61.33;102103.26;475414;112;922136;-76
2022/12/07 02:48:18;;;;;;;7.16;6.59;;;;;;;-6.71;61.40;102108.50;475353;112;922197;-74
2022/12/07 02:49:23;;;;;;;6.86;6.34;;;;;;;-6.72;61.33;102103.26;475083;112;922266;-75
2022/12/07 02:50:27;;;;;;;7.21;6.71;;;;;;;-6.73;61.20;102102.43;469207;112;922472;-77
2022/12/07 02:51:31;;;;;;;7.70;6.98;;;;;;;-6.73;61.14;102102.43;469290;113;922408;-77
2022/12/07 02:52:34;;;;;;;7.12;6.56;;;;;;;-6.72;61.15;102105.91;469137;113;930429;-78
2022/12/07 02:53:42;;;;;;;7.33;6.72;;;;;;;-6.73;61.11;102102.43;469280;113;922893;-75
2022/12/07 02:54:45;;;;;;;7.65;6.95;;;;;;;-6.74;61.16;102106.00;469716;110;922505;-77
2022/12/07 02:55:49;;;;;;;6.94;6.39;;;;;;;-6.74;61.10;102098.05;469699;113;922953;-77
2022/12/07 02:57:08;;;;;;;7.77;7.04;;;;;;;-6.73;61.14;102105.08;469586;113;922586;-77
2022/12/07 02:58:14;;;;;;;7.57;6.82;;;;;;;-6.72;61.08;102108.56;469520;113;922513;-77
2022/12/07 02:59:36;;;;;;;7.06;6.46;;;;;;;-6.72;61.06;102108.56;468452;113;922485;-76
2022/12/07 03:00:46;;;;;;;7.02;6.41;;;;;;;-6.73;61.16;102099.78;466058;113;922816;-77
2022/12/07 03:02:15;;;;;;;6.32;5.82;;;;;;;-6.73;61.17;102106.87;465733;114;922957;-74
2022/12/07 03:03:19;;;;;;;6.14;5.69;;;;;;;-6.75;61.15;102106.92;466066;114;922513;-77
2022/12/07 03:04:43;;;;;;;7.29;6.16;;;;;;;-6.76;61.15;102107.84;466139;113;922519;-77
2022/12/07 03:06:06;;;;;;;7.97;7.28;;;;;;;-6.66;61.10;102103.86;477301;110;947008;-76
2022/12/07 03:07:28;;;;;;;7.51;6.89;;;;;;;-6.78;61.14;102109.73;465579;114;922809;-76
2022/12/07 03:08:50;;;;;;;7.10;6.51;;;;;;;-6.80;61.15;102109.78;465537;114;922508;-77
2022/12/07 03:10:02;;;;;;;6.64;6.13;;;;;;;-6.81;61.16;102108.05;466537;112;922896;-77
2022/12/07 03:11:31;;;;;;;7.33;6.73;;;;;;;-6.71;61.16;102111.16;477188;110;947176;-76
2022/12/07 03:12:44;;;;;;;6.81;6.31;;;;;;;-6.82;61.21;102113.41;465114;113;922434;-76
2022/12/07 03:14:07;;;;;;;7.48;6.63;;;;;;;-6.84;61.15;102104.69;465546;114;922275;-76
2022/12/07 03:15:14;;;;;;;7.92;7.17;;;;;;;-6.86;61.23;102102.09;457264;115;923153;-76
2022/12/07 03:16:27;;;;;;;7.44;6.81;;;;;;;-6.87;61.15;102110.11;457160;115;922793;-77
2022/12/07 03:17:33;;;;;;;7.69;7.09;;;;;;;-6.87;61.22;102104.80;456853;115;922498;-77
2022/12/07 03:18:40;;;;;;;8.21;7.39;;;;;;;-6.87;61.18;102110.11;457434;116;922588;-77
2022/12/07 03:19:46;;;;;;;7.27;6.67;;;;;;;-6.88;61.18;102100.42;457287;114;922494;-77
2022/12/07 03:20:52;;;;;;;7.83;7.23;;;;;;;-6.87;61.13;102099.50;457396;116;923337;-76
2022/12/07 03:22:02;;;;;;;7.79;7.02;;;;;;;-6.87;61.15;102097.71;457405;116;922474;-77
2022/12/07 03:23:09;;;;;;;7.62;6.93;;;;;;;-6.86;61.15;102099.44;448840;118;922636;-76
2022/12/07 03:24:21;;;;;;;7.69;7.13;;;;;;;-6.85;61.21;102095.87;457454;116;922563;-76
2022/12/07 03:25:26;;;;;;;7.41;6.81;;;;;;;-6.83;61.11;102103.73;457139;114;922862;-77
2022/12/07 03:26:33;;;;;;;6.97;6.41;;;;;;;-6.82;61.10;102103.67;457463;116;922563;-76
2022/12/07 03:27:55;;;;;;;7.24;6.58;;;;;;;-6.80;61.07;102107.13;457431;116;923039;-77
2022/12/07 03:29:02;;;;;;;7.06;6.56;;;;;;;-6.80;61.02;102103.61;457360;115;922563;-76
2022/12/07 03:30:12;;;;;;;7.43;6.81;;;;;;;-6.80;61.06;102104.48;457017;114;922855;-77
2022/12/07 03:31:28;;;;;;;6.66;6.13;;;;;;;-6.81;61.06;102097.45;456873;116;922807;-76
2022/12/07 03:32:35;;;;;;;7.13;6.54;;;;;;;-6.81;60.92;102096.58;456985;116;922564;-76
2022/12/07 03:33:44;;;;;;;6.22;5.72;;;;;;;-6.80;60.96;102098.31;456989;116;922427;-74
2022/12/07 03:34:51;;;;;;;6.89;6.29;;;;;;;-6.80;60.96;102098.31;456388;114;922540;-77
2022/12/07 03:36:09;;;;;;;6.23;5.67;;;;;;;-6.80;61.03;102100.97;456980;116;922498;-75
2022/12/07 03:37:19;;;;;;;6.83;6.28;;;;;;;-6.79;61.02;102097.39;456393;116;922501;-74
2022/12/07 03:38:25;;;;;;;6.57;6.05;;;;;;;-6.79;61.02;102095.60;456904;116;922549;-76
2022/12/07 03:39:38;;;;;;;6.27;5.77;;;;;;;-6.79;61.02;102092.95;453760;114;922566;-77
2022/12/07 03:41:00;;;;;;;6.57;6.07;;;;;;;-6.79;60.93;102086.78;449560;118;922454;-77
2022/12/07 03:42:06;;;;;;;6.37;5.93;;;;;;;-6.79;60.87;102092.08;449607;118;922535;-77
2022/12/07 03:43:10;;;;;;;7.03;6.40;;;;;;;-6.79;60.98;102092.08;449579;118;922457;-74
2022/12/07 03:44:15;;;;;;;7.39;6.78;;;;;;;-6.80;60.92;102088.56;449693;118;922562;-77
2022/12/07 03:45:21;;;;;;;6.67;6.07;;;;;;;-6.79;60.94;102089.44;456443;114;922674;-76
2022/12/07 03:46:37;;;;;;;6.90;6.39;;;;;;;-6.78;60.92;102088.52;457444;116;922530;-75
2022/12/07 03:47:49;;;;;;;7.49;6.86;;;;;;;-6.78;60.91;102085.86;457428;116;922525;-77
2022/12/07 03:49:28;;;;;;;7.36;6.76;;;;;;;-6.77;60.84;102079.59;457090;115;922990;-75
2022/12/07 03:50:53;;;;;;;6.43;5.94;;;;;;;-6.77;60.88;102079.59;457265;116;922586;-76
2022/12/07 03:52:19;;;;;;;6.89;6.29;;;;;;;-6.78;60.84;102078.73;456998;115;922503;-75
2022/12/07 03:53:28;;;;;;;7.11;6.53;;;;;;;-6.81;60.92;102086.84;457609;116;922842;-77
2022/12/07 03:54:38;;;;;;;6.93;6.18;;;;;;;-6.82;60.86;102081.59;457065;115;922760;-76
2022/12/07 03:55:43;;;;;;;6.98;6.48;;;;;;;-6.84;60.93;102083.47;457104;116;922474;-77
2022/12/07 03:56:49;;;;;;;6.86;6.37;;;;;;;-6.87;60.91;102076.50;457239;116;922336;-76
2022/12/07 03:57:55;;;;;;;7.65;7.07;;;;;;;-6.87;60.92;102078.28;457239;116;922447;-76
2022/12/07 03:58:58;;;;;;;7.15;6.28;;;;;;;-6.88;60.87;102077.42;457295;116;922969;-77
2022/12/07 04:00:04;;;;;;;7.79;6.95;;;;;;;-6.86;60.83;102080.02;457160;114;922616;-76
2022/12/07 04:01:10;;;;;;;7.90;7.30;;;;;;;-6.87;60.83;102073.84;457786;116;922206;-75
2022/12/07 04:02:14;;;;;;;7.37;6.74;;;;;;;-6.86;60.76;102072.06;458837;116;922117;-76
2022/12/07 04:03:17;;;;;;;8.14;7.44;;;;;;;-6.86;60.81;102070.27;458783;115;922218;-76
2022/12/07 04:04:23;;;;;;;7.47;6.87;;;;;;;-6.85;60.76;102073.79;458794;114;922098;-75
2022/12/07 04:05:26;;;;;;;8.28;7.54;;;;;;;-6.84;60.73;102078.17;458580;116;922180;-75
2022/12/07 04:06:30;;;;;;;8.09;7.42;;;;;;;-6.84;60.70;102081.69;458833;114;922139;-75
2022/12/07 04:07:33;;;;;;;7.34;6.75;;;;;;;-6.82;60.73;102077.16;458203;116;922389;-75
2022/12/07 04:08:36;;;;;;;7.54;6.94;;;;;;;-6.80;60.63;102088.56;457504;115;923100;-75
2022/12/07 04:09:40;;;;;;;7.41;6.54;;;;;;;-6.81;60.60;102081.54;457292;114;930546;-76
2022/12/07 04:10:43;;;;;;;6.38;5.92;;;;;;;-6.80;60.64;102085.05;456682;116;922717;-75
2022/12/07 04:11:47;;;;;;;7.04;6.50;;;;;;;-6.80;60.51;102071.80;454914;116;922642;-77
2022/12/07 04:12:50;;;;;;;7.74;7.04;;;;;;;-6.80;60.46;102079.75;454906;116;922744;-76
2022/12/07 04:15:15;;;;;;;6.86;6.33;;;;;;;-6.79;60.58;102087.64;454859;116;922721;-77
2022/12/07 04:16:19;;;;;;;7.21;6.58;;;;;;;-6.79;60.55;102081.48;455195;115;922911;-77
2022/12/07 04:17:22;;;;;;;6.49;5.99;;;;;;;-6.79;60.55;102082.34;459644;115;923049;-76
2022/12/07 04:18:25;;;;;;;6.54;6.04;;;;;;;-6.78;60.46;102078.73;459566;115;922644;-77
2022/12/07 04:19:32;;;;;;;6.84;6.26;;;;;;;-6.77;60.47;102082.25;458782;115;922490;-77
2022/12/07 04:20:35;;;;;;;6.71;6.22;;;;;;;-6.77;60.48;102087.55;456608;116;922508;-76
2022/12/07 04:21:38;;;;;;;6.86;6.33;;;;;;;-6.78;60.42;102083.20;456852;116;922524;-76
2022/12/07 04:22:41;;;;;;;7.31;6.72;;;;;;;-6.79;60.30;102076.17;456608;116;922822;-78
2022/12/07 04:23:44;;;;;;;6.89;6.21;;;;;;;-6.79;60.30;102078.83;456805;115;922603;-76
2022/12/07 04:24:47;;;;;;;7.51;6.97;;;;;;;-6.81;60.28;102080.67;456528;115;922435;-77
2022/12/07 04:25:51;;;;;;;7.14;6.58;;;;;;;-6.81;60.29;102078.02;456728;116;922540;-76
2022/12/07 04:26:55;;;;;;;7.91;6.81;;;;;;;-6.83;60.30;102080.73;456709;115;922442;-78
2022/12/07 04:27:58;;;;;;;7.26;6.49;;;;;;;-6.82;60.40;102086.90;456552;116;922439;-77
2022/12/07 04:29:01;;;;;;;7.31;6.81;;;;;;;-6.83;60.40;102075.42;456634;116;922524;-76
2022/12/07 04:30:08;;;;;;;7.49;6.82;;;;;;;-6.82;60.40;102081.59;455080;115;922494;-76
2022/12/07 04:31:11;;;;;;;7.01;6.49;;;;;;;-6.83;60.31;102074.56;454778;116;923029;-77
2022/12/07 04:32:14;;;;;;;7.64;7.08;;;;;;;-6.83;60.34;102078.08;454837;116;922485;-77
2022/12/07 04:33:17;;;;;;;7.03;6.47;;;;;;;-6.84;60.27;102078.17;454879;116;922929;-77
2022/12/07 04:34:21;;;;;;;7.77;7.04;;;;;;;-6.85;60.25;102079.09;454870;116;922557;-76
2022/12/07 04:35:24;;;;;;;6.86;6.24;;;;;;;-6.87;60.24;102079.16;456233;116;922568;-78
2022/12/07 04:36:27;;;;;;;7.02;6.52;;;;;;;-6.88;60.28;102071.25;456580;116;922648;-76
2022/12/07 04:37:30;;;;;;;6.55;5.99;;;;;;;-6.89;60.27;102075.69;456675;115;922650;-78
2022/12/07 04:38:34;;;;;;;7.36;6.74;;;;;;;-6.88;60.25;102079.20;456681;116;922669;-78
2022/12/07 04:39:37;;;;;;;6.12;5.66;;;;;;;-6.89;60.33;102066.91;456283;116;922400;-76
2022/12/07 04:40:40;;;;;;;6.71;6.20;;;;;;;-6.89;60.24;102078.34;454860;116;922784;-76
2022/12/07 04:41:43;;;;;;;6.69;6.19;;;;;;;-6.88;60.29;102073.91;454773;116;922494;-77
2022/12/07 04:42:47;;;;;;;6.74;6.13;;;;;;;-6.87;60.29;102076.50;454874;116;922925;-76
2022/12/07 04:43:50;;;;;;;6.49;5.98;;;;;;;-6.87;60.33;102068.55;454933;116;922618;-76
2022/12/07 04:44:53;;;;;;;7.36;6.71;;;;;;;-6.86;60.23;102072.06;454772;116;922563;-77
2022/12/07 04:45:56;;;;;;;6.50;5.98;;;;;;;-6.87;60.24;102071.20;454920;116;922503;-75
2022/12/07 04:47:00;;;;;;;7.71;7.01;;;;;;;-6.88;60.19;102072.12;454879;116;922463;-76
2022/12/07 04:48:03;;;;;;;6.84;6.24;;;;;;;-6.88;60.24;102080.08;454794;116;923442;-76
2022/12/07 04:49:06;;;;;;;6.78;6.20;;;;;;;-6.88;60.26;102069.47;454899;116;922530;-78
2022/12/07 04:50:10;;;;;;;6.52;6.02;;;;;;;-6.86;60.32;102074.71;454977;116;922753;-76
2022/12/07 04:51:16;;;;;;;6.10;5.66;;;;;;;-6.85;60.33;102068.48;454771;116;923049;-79
2022/12/07 04:52:19;;;;;;;6.59;6.11;;;;;;;-6.86;60.32;102072.06;454239;116;922881;-77
2022/12/07 04:53:22;;;;;;;6.52;5.96;;;;;;;-6.86;60.27;102078.23;454866;116;922564;-74
2022/12/07 04:54:26;;;;;;;6.54;5.96;;;;;;;-6.85;60.16;102064.05;454780;116;922485;-78
2022/12/07 04:55:29;;;;;;;5.71;5.29;;;;;;;-6.87;60.16;102067.68;454958;116;922525;-77
2022/12/07 04:56:34;;;;;;;6.90;6.32;;;;;;;-6.87;60.25;102078.28;454917;116;922831;-76
2022/12/07 04:57:37;;;;;;;7.84;7.21;;;;;;;-6.88;60.18;102072.12;454732;116;922568;-75
2022/12/07 04:58:41;;;;;;;6.86;6.34;;;;;;;-6.88;60.17;102072.12;454833;116;922475;-76
2022/12/07 04:59:44;;;;;;;7.07;6.49;;;;;;;-6.89;60.20;102075.69;454794;116;922559;-76
2022/12/07 05:00:48;;;;;;;6.51;5.92;;;;;;;-6.88;60.26;102061.52;454789;116;922484;-76
2022/12/07 05:01:52;;;;;;;7.06;6.46;;;;;;;-6.88;60.17;102063.30;454752;116;922756;-77
2022/12/07 05:02:55;;;;;;;7.38;6.65;;;;;;;-6.89;60.22;102065.09;454864;116;922512;-76
2022/12/07 05:03:58;;;;;;;7.15;6.53;;;;;;;-6.89;60.19;102058.95;454770;116;922507;-76
2022/12/07 05:05:01;;;;;;;6.91;6.39;;;;;;;-6.90;60.08;102060.73;455423;116;922506;-76
2022/12/07 05:06:06;;;;;;;6.95;6.36;;;;;;;-6.92;60.17;102057.28;456689;116;922631;-76
2022/12/07 05:07:11;;;;;;;6.70;6.17;;;;;;;-6.92;60.14;102061.72;456075;115;922617;-77
2022/12/07 05:08:14;;;;;;;6.41;5.91;;;;;;;-6.92;60.25;102059.94;456695;116;922646;-76